Time;durP1;ratioP1;P1;durP2;ratioP2;P2;SDS_P1;SDS_P2;PMS_P1;PMS_P2;Temp;Humidity;BMP_temperature;BMP_pressure;BME280_temperature;BME280_humidity;BME280_pressure;Samples;Min_cycle;Max_cycle;Signal;HPM_P1;HPM_P2
2023/06/28 00:15:23;;;;;;;0.57;0.57;;;;;;;;;;5054061;28;20711;-60
2023/06/28 00:17:49;;;;;;;1.23;0.70;;;;;;;;;;5053845;28;20420;-60
2023/06/28 00:20:15;;;;;;;0.82;0.60;;;;;;;;;;5055282;28;20037;-60
2023/06/28 00:22:41;;;;;;;1.48;0.93;;;;;;;;;;5057097;28;20036;-60
2023/06/28 00:25:07;;;;;;;1.50;0.80;;;;;;;;;;5057439;28;20028;-61
2023/06/28 00:27:33;;;;;;;0.93;0.75;;;;;;;;;;5056190;28;20037;-60
2023/06/28 00:30:00;;;;;;;1.08;0.70;;;;;;;;;;5057726;28;20041;-60
2023/06/28 00:32:26;;;;;;;2.10;0.95;;;;;;;;;;5058804;28;20036;-60
2023/06/28 00:34:53;;;;;;;1.48;0.85;;;;;;;;;;5039203;28;20045;-60
2023/06/28 00:37:19;;;;;;;0.85;0.80;;;;;;;;;;5054539;28;20044;-60
2023/06/28 00:39:45;;;;;;;0.82;0.60;;;;;;;;;;5054868;28;20545;-60
2023/06/28 00:42:11;;;;;;;0.63;0.50;;;;;;;;;;5061146;28;20055;-60
2023/06/28 00:44:37;;;;;;;0.82;0.70;;;;;;;;;;5051414;28;20069;-60
2023/06/28 00:47:04;;;;;;;1.13;0.80;;;;;;;;;;5053854;28;20037;-60
2023/06/28 00:49:32;;;;;;;0.73;0.70;;;;;;;;;;5053655;28;20047;-60
2023/06/28 00:51:58;;;;;;;0.90;0.68;;;;;;;;;;5056013;28;20504;-60
2023/06/28 00:54:24;;;;;;;1.10;0.75;;;;;;;;;;5054607;28;20040;-60
2023/06/28 00:56:51;;;;;;;0.73;0.70;;;;;;;;;;5052531;28;20045;-60
2023/06/28 00:59:17;;;;;;;0.70;0.70;;;;;;;;;;5054500;28;20083;-60
2023/06/28 01:01:43;;;;;;;0.93;0.70;;;;;;;;;;5056566;28;20052;-60
2023/06/28 01:04:09;;;;;;;0.63;0.63;;;;;;;;;;5052683;28;20086;-60
2023/06/28 01:06:36;;;;;;;0.73;0.60;;;;;;;;;;5057447;28;20048;-60
2023/06/28 01:09:08;;;;;;;0.95;0.80;;;;;;;;;;5053510;28;21552;-60
2023/06/28 01:11:34;;;;;;;0.60;0.40;;;;;;;;;;5056088;28;20041;-60
2023/06/28 01:14:01;;;;;;;0.95;0.80;;;;;;;;;;5053222;28;20052;-61
2023/06/28 01:16:27;;;;;;;2.00;0.95;;;;;;;;;;5055090;28;20877;-60
2023/06/28 01:18:53;;;;;;;0.68;0.68;;;;;;;;;;5055584;28;20426;-60
2023/06/28 01:21:20;;;;;;;0.93;0.43;;;;;;;;;;5040043;28;20484;-60
2023/06/28 01:23:48;;;;;;;0.93;0.63;;;;;;;;;;5053846;28;20036;-60
2023/06/28 01:26:16;;;;;;;0.90;0.50;;;;;;;;;;5053925;28;20036;-60
2023/06/28 01:28:43;;;;;;;0.85;0.70;;;;;;;;;;5055556;28;20044;-60
2023/06/28 01:31:11;;;;;;;0.85;0.70;;;;;;;;;;5056697;28;20037;-60
2023/06/28 01:33:38;;;;;;;1.20;0.90;;;;;;;;;;5052648;28;20071;-60
2023/06/28 01:36:04;;;;;;;1.48;0.73;;;;;;;;;;5053999;28;20044;-60
2023/06/28 01:38:31;;;;;;;0.88;0.68;;;;;;;;;;5057505;28;20040;-60
2023/06/28 01:40:58;;;;;;;1.23;0.50;;;;;;;;;;5056841;28;20044;-60
2023/06/28 01:43:24;;;;;;;1.88;0.70;;;;;;;;;;5053882;28;20064;-60
2023/06/28 01:45:50;;;;;;;0.88;0.82;;;;;;;;;;5056322;28;21006;-60
2023/06/28 01:48:17;;;;;;;1.00;0.80;;;;;;;;;;5055551;28;20043;-60
2023/06/28 01:50:43;;;;;;;1.92;0.95;;;;;;;;;;5056008;28;20412;-60
2023/06/28 01:53:09;;;;;;;1.13;0.90;;;;;;;;;;5058791;28;20174;-60
2023/06/28 01:55:35;;;;;;;2.13;1.00;;;;;;;;;;5056407;28;20075;-60
2023/06/28 01:58:01;;;;;;;1.33;0.95;;;;;;;;;;5058146;28;20047;-59
2023/06/28 02:00:27;;;;;;;1.10;0.77;;;;;;;;;;5054360;28;21698;-61
2023/06/28 02:02:53;;;;;;;1.48;1.23;;;;;;;;;;5056202;28;20040;-60
2023/06/28 02:05:20;;;;;;;1.00;0.73;;;;;;;;;;5055564;28;20462;-60
2023/06/28 02:07:46;;;;;;;2.38;1.35;;;;;;;;;;5053879;28;20052;-60
2023/06/28 02:10:12;;;;;;;1.20;1.10;;;;;;;;;;5053860;28;20045;-60
2023/06/28 02:12:38;;;;;;;0.88;0.70;;;;;;;;;;5054674;28;20047;-60
2023/06/28 02:15:06;;;;;;;1.67;0.85;;;;;;;;;;5058627;28;20064;-60
2023/06/28 02:17:32;;;;;;;1.17;0.77;;;;;;;;;;5053030;28;21092;-60
2023/06/28 02:19:59;;;;;;;0.85;0.68;;;;;;;;;;5056571;28;20041;-61
2023/06/28 02:22:26;;;;;;;1.08;0.93;;;;;;;;;;5057278;28;20047;-60
2023/06/28 02:24:52;;;;;;;0.52;0.52;;;;;;;;;;5053423;28;20405;-60
2023/06/28 02:27:19;;;;;;;0.80;0.80;;;;;;;;;;5053581;28;20048;-60
2023/06/28 02:29:45;;;;;;;0.80;0.80;;;;;;;;;;5053698;28;20047;-60
2023/06/28 02:32:11;;;;;;;0.85;0.85;;;;;;;;;;5052059;28;20412;-60
2023/06/28 02:34:37;;;;;;;2.40;0.93;;;;;;;;;;5054464;28;20036;-60
2023/06/28 02:37:04;;;;;;;1.17;1.08;;;;;;;;;;5058553;28;20041;-60
2023/06/28 02:39:30;;;;;;;1.30;0.90;;;;;;;;;;5053133;28;20040;-59
2023/06/28 02:41:56;;;;;;;0.80;0.80;;;;;;;;;;5054879;28;20048;-59
2023/06/28 02:44:22;;;;;;;1.10;1.02;;;;;;;;;;5053231;28;20039;-60
2023/06/28 02:46:48;;;;;;;0.70;0.70;;;;;;;;;;5054434;28;20040;-61
2023/06/28 02:49:14;;;;;;;0.63;0.63;;;;;;;;;;5054127;28;20357;-59
2023/06/28 02:51:40;;;;;;;1.45;1.05;;;;;;;;;;5058161;28;20090;-60
2023/06/28 02:54:06;;;;;;;0.73;0.73;;;;;;;;;;5052640;28;20036;-60
2023/06/28 02:56:34;;;;;;;1.63;0.80;;;;;;;;;;5053047;28;20645;-59
2023/06/28 02:59:00;;;;;;;0.95;0.70;;;;;;;;;;5056724;28;20041;-60
2023/06/28 03:01:26;;;;;;;1.48;1.10;;;;;;;;;;5052854;28;20037;-60
2023/06/28 03:03:52;;;;;;;0.90;0.90;;;;;;;;;;5053450;28;20039;-60
2023/06/28 03:06:18;;;;;;;1.02;0.93;;;;;;;;;;5052673;28;20051;-59
2023/06/28 03:08:44;;;;;;;0.85;0.85;;;;;;;;;;5052175;28;20048;-60
2023/06/28 03:11:10;;;;;;;0.75;0.65;;;;;;;;;;5054213;28;20040;-60
2023/06/28 03:13:36;;;;;;;2.47;1.10;;;;;;;;;;5057624;28;20032;-60
2023/06/28 03:16:03;;;;;;;1.95;0.98;;;;;;;;;;5053256;28;20136;-59
2023/06/28 03:18:28;;;;;;;0.95;0.95;;;;;;;;;;5051997;28;20052;-59
2023/06/28 03:20:54;;;;;;;1.10;1.00;;;;;;;;;;5054980;28;20036;-61
2023/06/28 03:23:21;;;;;;;0.70;0.70;;;;;;;;;;5050458;28;20554;-60
2023/06/28 03:25:48;;;;;;;0.70;0.70;;;;;;;;;;5053917;28;20400;-60
2023/06/28 03:28:16;;;;;;;0.75;0.75;;;;;;;;;;5054599;28;20048;-60
2023/06/28 03:30:42;;;;;;;1.10;0.75;;;;;;;;;;5053431;28;20037;-59
2023/06/28 03:33:08;;;;;;;0.68;0.60;;;;;;;;;;5051091;28;20072;-60
2023/06/28 03:35:34;;;;;;;0.80;0.80;;;;;;;;;;5056049;28;21271;-60
2023/06/28 03:38:00;;;;;;;0.70;0.70;;;;;;;;;;5052217;28;20121;-60
2023/06/28 03:40:26;;;;;;;0.50;0.50;;;;;;;;;;5053134;28;20048;-60
2023/06/28 03:42:53;;;;;;;0.68;0.60;;;;;;;;;;5055118;28;20045;-59
2023/06/28 03:45:19;;;;;;;1.63;0.90;;;;;;;;;;5052767;28;20473;-60
2023/06/28 03:47:45;;;;;;;1.05;0.80;;;;;;;;;;5055553;28;20044;-59
2023/06/28 03:50:11;;;;;;;1.17;0.80;;;;;;;;;;5053532;28;20091;-59
2023/06/28 03:52:37;;;;;;;0.50;0.50;;;;;;;;;;5038685;28;20036;-60
2023/06/28 03:55:04;;;;;;;0.88;0.60;;;;;;;;;;5061303;28;20036;-60
2023/06/28 03:57:30;;;;;;;1.05;0.70;;;;;;;;;;5055009;28;20512;-59
2023/06/28 03:59:56;;;;;;;0.60;0.60;;;;;;;;;;5057670;28;20630;-60
2023/06/28 04:02:22;;;;;;;0.70;0.70;;;;;;;;;;5062254;28;20040;-59
2023/06/28 04:04:48;;;;;;;1.35;0.50;;;;;;;;;;5056190;28;20041;-60
2023/06/28 04:07:15;;;;;;;1.77;0.85;;;;;;;;;;5054646;28;20048;-59
2023/06/28 04:09:41;;;;;;;0.90;0.88;;;;;;;;;;5057739;28;20127;-59
2023/06/28 04:12:08;;;;;;;0.68;0.63;;;;;;;;;;5057222;28;20041;-59
2023/06/28 04:14:34;;;;;;;1.65;0.60;;;;;;;;;;5058483;28;20782;-59
2023/06/28 04:17:00;;;;;;;1.90;0.70;;;;;;;;;;5061170;28;20053;-60
2023/06/28 04:19:26;;;;;;;0.60;0.60;;;;;;;;;;5055989;28;20053;-60
2023/06/28 04:21:52;;;;;;;0.68;0.60;;;;;;;;;;5057655;28;20044;-59
2023/06/28 04:24:18;;;;;;;0.52;0.50;;;;;;;;;;5056670;28;20048;-59
2023/06/28 04:26:44;;;;;;;0.70;0.63;;;;;;;;;;5057492;28;20154;-59
2023/06/28 04:29:10;;;;;;;0.52;0.52;;;;;;;;;;5059698;28;20223;-60
2023/06/28 04:31:36;;;;;;;0.50;0.50;;;;;;;;;;5061565;28;20068;-60
2023/06/28 04:34:02;;;;;;;0.30;0.30;;;;;;;;;;5057350;28;20125;-60
2023/06/28 04:36:28;;;;;;;0.80;0.65;;;;;;;;;;5057434;28;20123;-59
2023/06/28 04:38:55;;;;;;;0.57;0.50;;;;;;;;;;5053323;28;20127;-60
2023/06/28 04:41:22;;;;;;;0.77;0.60;;;;;;;;;;5053771;28;20041;-59
2023/06/28 04:43:49;;;;;;;0.60;0.60;;;;;;;;;;5052355;28;20044;-60
2023/06/28 04:46:15;;;;;;;1.30;0.68;;;;;;;;;;5042839;28;20032;-59
2023/06/28 04:48:42;;;;;;;0.50;0.50;;;;;;;;;;5057734;28;20166;-59
2023/06/28 04:51:08;;;;;;;0.60;0.50;;;;;;;;;;5056810;28;20042;-59
2023/06/28 04:53:34;;;;;;;0.40;0.40;;;;;;;;;;5055217;28;20443;-60
2023/06/28 04:56:00;;;;;;;0.52;0.52;;;;;;;;;;5051533;28;20045;-60
2023/06/28 04:58:26;;;;;;;0.20;0.20;;;;;;;;;;5055559;28;20484;-60
2023/06/28 05:00:56;;;;;;;0.45;0.45;;;;;;;;;;5056626;28;20040;-60
2023/06/28 05:03:26;;;;;;;0.40;0.28;;;;;;;;;;5053171;28;20049;-60
2023/06/28 05:05:54;;;;;;;0.35;0.35;;;;;;;;;;5058384;28;20504;-60
2023/06/28 05:08:20;;;;;;;0.30;0.30;;;;;;;;;;5054196;28;20056;-59
2023/06/28 05:10:46;;;;;;;0.38;0.38;;;;;;;;;;5056685;28;20044;-59
2023/06/28 05:13:12;;;;;;;0.80;0.50;;;;;;;;;;5053539;28;20047;-59
2023/06/28 05:15:38;;;;;;;0.38;0.32;;;;;;;;;;5056429;28;20052;-59
2023/06/28 05:18:04;;;;;;;1.13;0.70;;;;;;;;;;5051530;28;20065;-60
2023/06/28 05:20:31;;;;;;;0.47;0.40;;;;;;;;;;5054570;28;20138;-59
2023/06/28 05:23:12;;;;;;;0.70;0.70;;;;;;;;;;5054379;28;20051;-59
2023/06/28 05:25:39;;;;;;;1.40;0.60;;;;;;;;;;5059793;28;20076;-60
2023/06/28 05:28:05;;;;;;;1.08;0.80;;;;;;;;;;5057591;28;20049;-60
2023/06/28 05:30:32;;;;;;;1.20;0.90;;;;;;;;;;5059246;28;20040;-59
2023/06/28 05:33:01;;;;;;;0.73;0.70;;;;;;;;;;5057037;28;20711;-60
2023/06/28 05:35:27;;;;;;;0.60;0.60;;;;;;;;;;5054679;28;20048;-59
2023/06/28 05:37:53;;;;;;;1.48;0.77;;;;;;;;;;5056006;28;20037;-60
2023/06/28 05:40:19;;;;;;;1.17;0.80;;;;;;;;;;5052046;28;20044;-60
2023/06/28 05:42:45;;;;;;;0.73;0.70;;;;;;;;;;5050885;28;20147;-60
2023/06/28 05:45:11;;;;;;;0.60;0.57;;;;;;;;;;5056937;28;20056;-59
2023/06/28 05:47:37;;;;;;;1.27;0.73;;;;;;;;;;5058293;28;21274;-59
2023/06/28 05:50:04;;;;;;;1.10;0.60;;;;;;;;;;5056679;28;20047;-60
2023/06/28 05:52:30;;;;;;;0.73;0.73;;;;;;;;;;5055211;28;20036;-60
2023/06/28 05:54:56;;;;;;;1.63;0.90;;;;;;;;;;5056292;28;20437;-59
2023/06/28 05:57:22;;;;;;;0.75;0.70;;;;;;;;;;5053341;28;20048;-59
2023/06/28 05:59:48;;;;;;;0.65;0.65;;;;;;;;;;5054732;28;20041;-59
2023/06/28 06:02:14;;;;;;;2.08;1.10;;;;;;;;;;5038126;28;20428;-60
2023/06/28 06:04:40;;;;;;;0.70;0.70;;;;;;;;;;5053651;28;20047;-59
2023/06/28 06:07:06;;;;;;;0.85;0.82;;;;;;;;;;5059782;28;20052;-60
2023/06/28 06:09:32;;;;;;;1.00;0.77;;;;;;;;;;5057485;28;20045;-59
2023/06/28 06:11:58;;;;;;;1.10;0.55;;;;;;;;;;5055870;28;20478;-60
2023/06/28 06:14:24;;;;;;;0.90;0.70;;;;;;;;;;5053692;28;20106;-60
2023/06/28 06:16:50;;;;;;;4.25;1.60;;;;;;;;;;5055912;28;20136;-60
2023/06/28 06:19:16;;;;;;;2.17;1.00;;;;;;;;;;5052097;28;20045;-60
2023/06/28 06:21:42;;;;;;;0.98;0.88;;;;;;;;;;5056280;28;20033;-60
2023/06/28 06:24:08;;;;;;;1.27;0.90;;;;;;;;;;5061264;28;20102;-60
2023/06/28 06:26:35;;;;;;;0.98;0.88;;;;;;;;;;5056935;28;20122;-59
2023/06/28 06:29:01;;;;;;;1.95;1.10;;;;;;;;;;5050673;28;20040;-60
2023/06/28 06:31:28;;;;;;;0.82;0.73;;;;;;;;;;5053533;28;20550;-60
2023/06/28 06:33:56;;;;;;;0.77;0.77;;;;;;;;;;5046867;28;20032;-60
2023/06/28 06:36:22;;;;;;;1.40;1.30;;;;;;;;;;5046451;28;20540;-59
2023/06/28 06:38:48;;;;;;;3.63;2.25;;;;;;;;;;5051639;28;20037;-59
2023/06/28 06:41:14;;;;;;;1.83;1.30;;;;;;;;;;5046891;28;20041;-59
2023/06/28 06:43:41;;;;;;;1.17;1.05;;;;;;;;;;5051555;28;20035;-59
2023/06/28 06:46:07;;;;;;;1.38;1.13;;;;;;;;;;5052653;28;20044;-59
2023/06/28 06:48:33;;;;;;;1.10;1.00;;;;;;;;;;5050521;28;20044;-59
2023/06/28 06:50:59;;;;;;;1.10;1.00;;;;;;;;;;5054729;28;20072;-59
2023/06/28 06:53:25;;;;;;;2.03;1.48;;;;;;;;;;5049075;28;20046;-60
2023/06/28 06:55:51;;;;;;;2.10;1.63;;;;;;;;;;5055713;28;20568;-59
2023/06/28 06:58:17;;;;;;;1.60;1.23;;;;;;;;;;5053651;28;20045;-59
2023/06/28 07:00:43;;;;;;;1.70;1.00;;;;;;;;;;5055686;28;20028;-60
2023/06/28 07:03:10;;;;;;;3.45;2.60;;;;;;;;;;5047805;28;20036;-59
2023/06/28 07:05:36;;;;;;;1.67;1.55;;;;;;;;;;5044361;28;20052;-59
2023/06/28 07:08:02;;;;;;;1.35;1.30;;;;;;;;;;5044128;28;20087;-59
2023/06/28 07:10:28;;;;;;;1.73;1.42;;;;;;;;;;5048532;28;20040;-60
2023/06/28 07:12:54;;;;;;;1.95;1.50;;;;;;;;;;5049069;28;20091;-60
2023/06/28 07:15:20;;;;;;;2.00;1.52;;;;;;;;;;5043071;28;20057;-60
2023/06/28 07:17:46;;;;;;;2.42;2.22;;;;;;;;;;5051139;28;20504;-59
2023/06/28 07:20:12;;;;;;;4.18;2.20;;;;;;;;;;5045824;28;20155;-60
2023/06/28 07:22:38;;;;;;;3.58;2.75;;;;;;;;;;5056528;28;20132;-59
2023/06/28 07:25:04;;;;;;;2.78;2.33;;;;;;;;;;5044901;28;20417;-60
2023/06/28 07:27:31;;;;;;;1.95;1.70;;;;;;;;;;5047354;28;20044;-60
2023/06/28 07:29:57;;;;;;;2.00;1.45;;;;;;;;;;5048420;28;20762;-59
2023/06/28 07:32:26;;;;;;;2.33;1.80;;;;;;;;;;5047840;28;20436;-60
2023/06/28 07:34:53;;;;;;;1.85;1.50;;;;;;;;;;5054768;28;20045;-60
2023/06/28 07:37:19;;;;;;;2.75;1.70;;;;;;;;;;5060155;28;20112;-60
2023/06/28 07:39:45;;;;;;;1.85;1.48;;;;;;;;;;5057713;28;20456;-59
2023/06/28 07:42:12;;;;;;;1.73;1.30;;;;;;;;;;5055132;28;20059;-60
2023/06/28 07:44:38;;;;;;;1.48;1.38;;;;;;;;;;5055412;28;20084;-60
2023/06/28 07:47:05;;;;;;;1.40;1.30;;;;;;;;;;5056564;28;20052;-60
2023/06/28 07:49:31;;;;;;;4.68;2.90;;;;;;;;;;5054521;28;20045;-59
2023/06/28 07:51:58;;;;;;;3.17;1.92;;;;;;;;;;5058236;28;20120;-60
2023/06/28 07:54:24;;;;;;;3.15;1.80;;;;;;;;;;5056673;28;20045;-60
2023/06/28 07:56:50;;;;;;;4.88;2.42;;;;;;;;;;5058276;28;20041;-60
2023/06/28 07:59:18;;;;;;;1.75;1.35;;;;;;;;;;5054501;28;20128;-60
2023/06/28 08:01:45;;;;;;;3.13;2.00;;;;;;;;;;5056242;28;20055;-59
2023/06/28 08:04:11;;;;;;;2.42;1.90;;;;;;;;;;5056706;28;20048;-59
2023/06/28 08:06:37;;;;;;;2.22;1.90;;;;;;;;;;5053427;28;20041;-60
2023/06/28 08:09:03;;;;;;;5.47;2.80;;;;;;;;;;5054833;28;20059;-60
2023/06/28 08:11:29;;;;;;;2.58;2.03;;;;;;;;;;5055540;28;20051;-60
2023/06/28 08:13:55;;;;;;;3.55;2.60;;;;;;;;;;5058746;28;20040;-60
2023/06/28 08:16:21;;;;;;;2.28;1.33;;;;;;;;;;5063909;28;20056;-60
2023/06/28 08:18:47;;;;;;;2.17;1.70;;;;;;;;;;5065289;28;20124;-60
2023/06/28 08:21:14;;;;;;;1.70;1.60;;;;;;;;;;5063542;28;20051;-60
2023/06/28 08:23:40;;;;;;;1.52;1.10;;;;;;;;;;5065563;28;20118;-60
2023/06/28 08:26:06;;;;;;;0.85;0.82;;;;;;;;;;5054420;28;20040;-61
2023/06/28 08:28:32;;;;;;;4.47;3.00;;;;;;;;;;5069736;28;20048;-60
2023/06/28 08:30:58;;;;;;;2.55;2.33;;;;;;;;;;5055274;28;20104;-60
2023/06/28 08:33:24;;;;;;;2.47;2.28;;;;;;;;;;5054076;28;20080;-61
2023/06/28 08:35:50;;;;;;;2.63;1.67;;;;;;;;;;5059114;28;20392;-58
2023/06/28 08:38:16;;;;;;;2.90;1.40;;;;;;;;;;5064222;28;20660;-61
2023/06/28 08:40:42;;;;;;;2.45;1.70;;;;;;;;;;5063070;28;20508;-59
2023/06/28 08:43:09;;;;;;;1.08;1.00;;;;;;;;;;5047762;28;20044;-66
2023/06/28 08:45:36;;;;;;;1.17;1.08;;;;;;;;;;5058876;28;20136;-67
2023/06/28 08:48:03;;;;;;;3.28;2.25;;;;;;;;;;5065671;28;20123;-63
2023/06/28 08:50:29;;;;;;;3.58;3.20;;;;;;;;;;5067266;28;20036;-65
2023/06/28 08:52:56;;;;;;;4.47;2.78;;;;;;;;;;5059861;28;20103;-65
2023/06/28 08:55:23;;;;;;;3.22;2.03;;;;;;;;;;5055933;28;20056;-65
2023/06/28 08:57:49;;;;;;;4.20;3.22;;;;;;;;;;5059440;28;20051;-65
2023/06/28 09:00:15;;;;;;;4.35;2.75;;;;;;;;;;5060510;28;20484;-65
2023/06/28 09:02:42;;;;;;;2.00;1.70;;;;;;;;;;5056424;28;20083;-65
2023/06/28 09:05:09;;;;;;;2.35;2.08;;;;;;;;;;5055901;28;20523;-65
2023/06/28 09:07:36;;;;;;;4.28;3.85;;;;;;;;;;5049737;28;20041;-65
2023/06/28 09:10:03;;;;;;;3.72;2.70;;;;;;;;;;5046249;28;20045;-68
2023/06/28 09:12:29;;;;;;;2.58;1.90;;;;;;;;;;5062320;28;20488;-65
2023/06/28 09:14:55;;;;;;;3.05;2.22;;;;;;;;;;5064182;28;20471;-64
2023/06/28 09:17:21;;;;;;;2.38;2.10;;;;;;;;;;5057630;28;20056;-65
2023/06/28 09:19:47;;;;;;;4.55;2.83;;;;;;;;;;5060155;28;20082;-65
2023/06/28 09:22:13;;;;;;;5.55;3.85;;;;;;;;;;5061487;28;20044;-65
2023/06/28 09:24:39;;;;;;;3.97;3.60;;;;;;;;;;5065069;28;20044;-65
2023/06/28 09:27:06;;;;;;;4.13;3.50;;;;;;;;;;5060290;28;20052;-65
2023/06/28 09:29:32;;;;;;;3.08;2.78;;;;;;;;;;5060995;28;20113;-65
2023/06/28 09:32:00;;;;;;;3.95;3.42;;;;;;;;;;5065027;28;20049;-65
2023/06/28 09:34:26;;;;;;;5.15;4.22;;;;;;;;;;5060087;28;20064;-65
2023/06/28 09:36:53;;;;;;;3.53;2.90;;;;;;;;;;5064608;28;20097;-65
2023/06/28 09:39:25;;;;;;;7.90;5.03;;;;;;;;;;5045644;28;20119;-65
2023/06/28 09:41:51;;;;;;;4.30;3.85;;;;;;;;;;5045491;28;20079;-65
2023/06/28 09:44:27;;;;;;;5.15;3.88;;;;;;;;;;5057480;28;20077;-68
2023/06/28 09:46:59;;;;;;;4.10;3.70;;;;;;;;;;5046020;28;20412;-65
2023/06/28 09:49:25;;;;;;;3.95;3.15;;;;;;;;;;5055473;28;20052;-65
2023/06/28 09:52:01;;;;;;;2.90;2.60;;;;;;;;;;5065455;28;20154;-65
2023/06/28 09:54:31;;;;;;;2.63;2.42;;;;;;;;;;5056530;28;20067;-65
2023/06/28 09:56:58;;;;;;;1.85;1.75;;;;;;;;;;5049842;28;20750;-65
2023/06/28 09:59:27;;;;;;;3.33;3.03;;;;;;;;;;5062122;28;20502;-65
2023/06/28 10:01:53;;;;;;;3.38;2.33;;;;;;;;;;5060925;28;20563;-65
2023/06/28 10:04:19;;;;;;;3.88;2.80;;;;;;;;;;5059593;28;20037;-65
2023/06/28 10:06:46;;;;;;;5.25;4.75;;;;;;;;;;5057369;28;20141;-65
2023/06/28 10:09:15;;;;;;;3.58;3.30;;;;;;;;;;5057792;28;20048;-65
2023/06/28 10:11:49;;;;;;;4.28;3.30;;;;;;;;;;5064862;28;20456;-64
2023/06/28 10:14:17;;;;;;;4.97;4.38;;;;;;;;;;5056878;28;20440;-64
2023/06/28 10:16:45;;;;;;;4.32;3.35;;;;;;;;;;5054491;28;20045;-65
2023/06/28 10:19:11;;;;;;;3.85;2.80;;;;;;;;;;5050069;28;20658;-65
2023/06/28 10:21:39;;;;;;;4.40;4.03;;;;;;;;;;5056289;28;20141;-64
2023/06/28 10:24:06;;;;;;;3.53;3.08;;;;;;;;;;5054978;28;20041;-64
2023/06/28 10:26:33;;;;;;;3.42;3.13;;;;;;;;;;5049289;28;20123;-65
2023/06/28 10:28:59;;;;;;;4.32;3.97;;;;;;;;;;5048197;28;20075;-65
2023/06/28 10:31:26;;;;;;;4.95;4.30;;;;;;;;;;5053256;28;20432;-64
2023/06/28 10:33:52;;;;;;;4.00;3.58;;;;;;;;;;5057945;28;20044;-65
2023/06/28 10:36:18;;;;;;;4.43;3.35;;;;;;;;;;5054985;28;20120;-65
2023/06/28 10:38:44;;;;;;;3.28;2.97;;;;;;;;;;5052994;28;20127;-65
2023/06/28 10:41:17;;;;;;;2.78;2.15;;;;;;;;;;5055751;28;20771;-65
2023/06/28 10:43:44;;;;;;;4.47;3.08;;;;;;;;;;5050937;28;20157;-65
2023/06/28 10:46:25;;;;;;;2.90;2.70;;;;;;;;;;5053496;28;20543;-65
2023/06/28 10:48:55;;;;;;;2.00;1.90;;;;;;;;;;5051357;28;20041;-65
2023/06/28 10:51:25;;;;;;;2.88;2.50;;;;;;;;;;5050942;28;20394;-65
2023/06/28 10:54:05;;;;;;;3.17;2.97;;;;;;;;;;5052293;28;20041;-65
2023/06/28 10:56:44;;;;;;;3.70;3.00;;;;;;;;;;5054716;28;20041;-65
2023/06/28 10:59:10;;;;;;;4.25;3.95;;;;;;;;;;5058506;28;20501;-65
2023/06/28 11:01:37;;;;;;;3.38;2.92;;;;;;;;;;5061376;28;20048;-65
2023/06/28 11:04:13;;;;;;;3.30;3.00;;;;;;;;;;5058485;28;20512;-65
2023/06/28 11:06:40;;;;;;;3.45;3.15;;;;;;;;;;5059644;28;20092;-65
2023/06/28 11:09:19;;;;;;;2.58;2.38;;;;;;;;;;5049541;28;20522;-65
2023/06/28 11:11:56;;;;;;;3.10;2.78;;;;;;;;;;5048545;28;20494;-66
2023/06/28 11:14:31;;;;;;;4.97;3.33;;;;;;;;;;5048243;28;20076;-65
2023/06/28 11:17:01;;;;;;;2.90;2.63;;;;;;;;;;5053880;28;20107;-65
2023/06/28 11:19:27;;;;;;;3.85;3.38;;;;;;;;;;5048626;28;20112;-65
2023/06/28 11:22:00;;;;;;;4.63;4.18;;;;;;;;;;5040964;28;20043;-65
2023/06/28 11:24:46;;;;;;;4.10;3.25;;;;;;;;;;5044004;28;20040;-65
2023/06/28 11:27:13;;;;;;;3.20;2.92;;;;;;;;;;5040317;28;20045;-65
2023/06/28 11:30:05;;;;;;;3.92;3.40;;;;;;;;;;5042385;28;20040;-65
2023/06/28 11:32:32;;;;;;;;;;;;;;;;;;5036881;28;20053;-65
2023/06/28 11:34:59;;;;;;;2.75;2.55;;;;;;;;;;5041584;28;19920;-65
2023/06/28 11:37:25;;;;;;;3.38;3.03;;;;;;;;;;5039248;28;20108;-65
2023/06/28 11:39:51;;;;;;;2.60;2.40;;;;;;;;;;5040074;28;20045;-64
2023/06/28 11:42:20;;;;;;;3.97;3.67;;;;;;;;;;5036434;28;20183;-64
2023/06/28 11:44:47;;;;;;;4.03;3.63;;;;;;;;;;5042519;28;20065;-64
2023/06/28 11:47:14;;;;;;;5.78;3.15;;;;;;;;;;5039694;28;20037;-64
2023/06/28 11:49:41;;;;;;;2.83;2.63;;;;;;;;;;5038983;28;20049;-64
2023/06/28 11:52:08;;;;;;;2.97;2.78;;;;;;;;;;5036427;28;20510;-64
2023/06/28 11:54:35;;;;;;;3.20;2.90;;;;;;;;;;5037315;28;20497;-64
2023/06/28 11:57:01;;;;;;;2.72;2.53;;;;;;;;;;5049986;28;20124;-64
2023/06/28 11:59:29;;;;;;;2.95;2.75;;;;;;;;;;5046389;28;20405;-64
2023/06/28 12:02:09;;;;;;;3.08;2.88;;;;;;;;;;5037046;28;20092;-64
2023/06/28 12:04:36;;;;;;;2.55;2.35;;;;;;;;;;5040197;28;20049;-64
2023/06/28 12:07:04;;;;;;;3.33;3.03;;;;;;;;;;5040682;28;20041;-64
2023/06/28 12:09:31;;;;;;;2.75;2.55;;;;;;;;;;5038748;28;20068;-64
2023/06/28 12:11:58;;;;;;;2.15;1.98;;;;;;;;;;5041466;28;20276;-64
2023/06/28 12:14:27;;;;;;;4.93;4.63;;;;;;;;;;5035249;28;20037;-64
2023/06/28 12:16:54;;;;;;;6.00;5.50;;;;;;;;;;5038915;28;20079;-64
2023/06/28 12:19:20;;;;;;;4.57;3.92;;;;;;;;;;5043051;28;20052;-64
2023/06/28 12:21:47;;;;;;;4.55;4.15;;;;;;;;;;5043317;28;20128;-65
2023/06/28 12:24:13;;;;;;;6.65;6.05;;;;;;;;;;5038660;28;20195;-64
2023/06/28 12:26:39;;;;;;;4.75;4.35;;;;;;;;;;5042237;28;20041;-64
2023/06/28 12:29:07;;;;;;;5.03;4.60;;;;;;;;;;5041266;28;20033;-66
2023/06/28 12:31:47;;;;;;;3.70;3.40;;;;;;;;;;5045192;28;20064;-65
2023/06/28 12:34:14;;;;;;;4.68;4.28;;;;;;;;;;5037024;28;20069;-65
2023/06/28 12:36:40;;;;;;;4.50;4.20;;;;;;;;;;5035276;28;20431;-65
2023/06/28 12:39:09;;;;;;;4.30;3.90;;;;;;;;;;5041485;28;20036;-65
2023/06/28 12:41:35;;;;;;;3.72;3.42;;;;;;;;;;5032672;28;20043;-65
2023/06/28 12:44:01;;;;;;;2.80;2.60;;;;;;;;;;5029977;28;20037;-65
2023/06/28 12:46:28;;;;;;;3.63;3.33;;;;;;;;;;5036350;28;20052;-65
2023/06/28 12:48:55;;;;;;;2.50;2.30;;;;;;;;;;5031259;28;20462;-65
2023/06/28 12:51:21;;;;;;;2.17;2.08;;;;;;;;;;5030745;28;20045;-66
2023/06/28 12:53:47;;;;;;;2.90;2.65;;;;;;;;;;5037998;28;20125;-66
2023/06/28 12:56:13;;;;;;;4.68;4.28;;;;;;;;;;5034757;28;20057;-65
2023/06/28 12:58:39;;;;;;;4.38;4.07;;;;;;;;;;5025025;28;20534;-65
2023/06/28 13:01:05;;;;;;;5.07;4.65;;;;;;;;;;5033027;28;21355;-66
2023/06/28 13:03:31;;;;;;;6.20;5.65;;;;;;;;;;5041545;28;20041;-66
2023/06/28 13:05:59;;;;;;;4.20;3.80;;;;;;;;;;5033757;28;20040;-66
2023/06/28 13:08:29;;;;;;;4.82;4.40;;;;;;;;;;5029635;28;20116;-66
2023/06/28 13:10:55;;;;;;;6.72;5.85;;;;;;;;;;5037481;28;20095;-66
2023/06/28 13:13:21;;;;;;;5.35;4.80;;;;;;;;;;5035585;28;20041;-66
2023/06/28 13:15:47;;;;;;;6.38;5.78;;;;;;;;;;5033267;28;20083;-66
2023/06/28 13:18:14;;;;;;;8.20;7.50;;;;;;;;;;5041138;28;20048;-66
2023/06/28 13:20:40;;;;;;;9.38;8.50;;;;;;;;;;5044424;28;20052;-66
2023/06/28 13:23:05;;;;;;;7.07;6.43;;;;;;;;;;5034076;28;20579;-66
2023/06/28 13:25:32;;;;;;;6.90;6.22;;;;;;;;;;5046013;28;20082;-66
2023/06/28 13:27:58;;;;;;;5.78;5.30;;;;;;;;;;5045368;28;20127;-66
2023/06/28 13:30:24;;;;;;;8.73;7.72;;;;;;;;;;5045154;28;20616;-65
2023/06/28 13:32:52;;;;;;;7.07;6.38;;;;;;;;;;5039949;28;20643;-66
2023/06/28 13:35:18;;;;;;;7.97;7.18;;;;;;;;;;5030574;28;20045;-66
2023/06/28 13:37:45;;;;;;;7.85;7.15;;;;;;;;;;5027292;28;20045;-66
2023/06/28 13:40:12;;;;;;;5.45;5.03;;;;;;;;;;5041197;28;20186;-66
2023/06/28 13:42:38;;;;;;;6.18;5.68;;;;;;;;;;5044417;28;20112;-66
2023/06/28 13:45:04;;;;;;;5.30;4.90;;;;;;;;;;5044144;28;20600;-66
2023/06/28 13:47:30;;;;;;;5.45;4.93;;;;;;;;;;5043857;28;20088;-65
2023/06/28 13:49:56;;;;;;;5.85;5.35;;;;;;;;;;5045006;28;20083;-65
2023/06/28 13:52:22;;;;;;;4.57;4.18;;;;;;;;;;5044698;28;20045;-65
2023/06/28 13:54:48;;;;;;;5.28;4.78;;;;;;;;;;5044437;28;20041;-65
2023/06/28 13:57:14;;;;;;;3.95;3.65;;;;;;;;;;5043657;28;20568;-65
2023/06/28 13:59:40;;;;;;;5.43;4.50;;;;;;;;;;5044892;28;20049;-66
2023/06/28 14:02:07;;;;;;;5.47;4.47;;;;;;;;;;5044479;28;20118;-66
2023/06/28 14:04:33;;;;;;;3.70;3.50;;;;;;;;;;5045638;28;20237;-66
2023/06/28 14:06:59;;;;;;;5.90;5.40;;;;;;;;;;5045319;28;20040;-66
2023/06/28 14:09:26;;;;;;;5.85;5.15;;;;;;;;;;5043753;28;20174;-65
2023/06/28 14:11:52;;;;;;;5.65;5.10;;;;;;;;;;5044907;28;20132;-65
2023/06/28 14:14:18;;;;;;;5.95;5.28;;;;;;;;;;5040130;28;20395;-65
2023/06/28 14:16:44;;;;;;;8.70;7.88;;;;;;;;;;5033690;28;20045;-65
2023/06/28 14:19:10;;;;;;;7.93;7.18;;;;;;;;;;5029464;28;20044;-66
2023/06/28 14:21:36;;;;;;;8.80;7.97;;;;;;;;;;5041824;28;20122;-66
2023/06/28 14:24:02;;;;;;;7.22;6.40;;;;;;;;;;5043867;28;20485;-65
2023/06/28 14:26:28;;;;;;;7.07;6.43;;;;;;;;;;5036085;28;20115;-65
2023/06/28 14:28:54;;;;;;;7.13;6.47;;;;;;;;;;5029670;28;20084;-65
2023/06/28 14:31:20;;;;;;;7.97;7.25;;;;;;;;;;5023659;28;20052;-65
2023/06/28 14:33:47;;;;;;;11.13;9.75;;;;;;;;;;5025029;28;20045;-65
2023/06/28 14:36:13;;;;;;;9.23;8.38;;;;;;;;;;5031510;28;20050;-65
2023/06/28 14:38:39;;;;;;;12.73;11.18;;;;;;;;;;5026388;28;20073;-66
2023/06/28 14:41:05;;;;;;;8.82;8.02;;;;;;;;;;5038900;28;20056;-66
2023/06/28 14:43:31;;;;;;;10.00;8.70;;;;;;;;;;5037530;28;20048;-65
2023/06/28 14:45:57;;;;;;;8.85;8.00;;;;;;;;;;5034909;28;20128;-65
2023/06/28 14:48:23;;;;;;;9.43;8.10;;;;;;;;;;5038086;28;20416;-65
2023/06/28 14:50:49;;;;;;;7.65;6.78;;;;;;;;;;5026033;28;20051;-65
2023/06/28 14:53:15;;;;;;;7.68;6.97;;;;;;;;;;5027518;28;20041;-65
2023/06/28 14:55:41;;;;;;;8.30;7.50;;;;;;;;;;5030731;28;20906;-65